Terminal Aerodrome Forecast
Issued by NWS

Home | Current Version | Previous Version | Text Only | Print | Product List | Glossary On
Versions: 1 2 3 4 5 6 7 8 9 10 11 12 13 14 15 16 17 18 19 20 21 22 23 24 25 26 27 28 29 30 31 32 33 34 35 36 37 38
000
FTUS44 KLIX 242025 AAB
TAFMCB
TAF AMD
KMCB 242025Z 2420/2518 18010KT P6SM FEW100 BKN150
     FM250200 00000KT P6SM SCT250
     FM251200 00000KT 5SM BR OVC250
     FM251300 VRB03KT P6SM OVC250
     FM251600 22005KT P6SM BKN050=

USA.gov is the U.S. government's official web portal to all federal, state and local government web resources and services.